Time;durP1;ratioP1;P1;durP2;ratioP2;P2;SDS_P1;SDS_P2;PMS_P1;PMS_P2;Temp;Humidity;BMP_temperature;BMP_pressure;BME280_temperature;BME280_humidity;BME280_pressure;Samples;Min_cycle;Max_cycle;Signal;HPM_P1;HPM_P2
2021/09/08 00:01:28;;;;;;;20.07;10.90;;;;;;;;;;5047867;28;20028;-89
2021/09/08 00:03:53;;;;;;;15.57;9.95;;;;;;;;;;5047993;28;20349;-88
2021/09/08 00:06:19;;;;;;;21.40;11.00;;;;;;;;;;5049470;28;20500;-89
2021/09/08 00:08:44;;;;;;;18.40;10.68;;;;;;;;;;5046854;28;20031;-88
2021/09/08 00:11:09;;;;;;;23.40;10.48;;;;;;;;;;5035538;28;20539;-89
2021/09/08 00:13:34;;;;;;;24.23;11.38;;;;;;;;;;5037717;28;20543;-89
2021/09/08 00:15:59;;;;;;;16.47;10.33;;;;;;;;;;5046748;28;20021;-89
2021/09/08 00:18:25;;;;;;;17.90;10.07;;;;;;;;;;5046707;28;20287;-89
2021/09/08 00:20:50;;;;;;;22.73;11.10;;;;;;;;;;5061708;23;20036;-68
2021/09/08 00:23:15;;;;;;;20.33;11.10;;;;;;;;;;5042082;28;20084;-68
2021/09/08 00:25:41;;;;;;;20.37;10.97;;;;;;;;;;5051352;28;20500;-70
2021/09/08 00:28:06;;;;;;;21.83;11.23;;;;;;;;;;5062091;28;20294;-69
2021/09/08 00:30:31;;;;;;;21.42;10.70;;;;;;;;;;5062612;28;20285;-69
2021/09/08 00:32:56;;;;;;;22.50;10.68;;;;;;;;;;5050224;28;20070;-68
2021/09/08 00:35:22;;;;;;;20.27;12.00;;;;;;;;;;5054426;28;20100;-69
2021/09/08 00:37:47;;;;;;;19.08;10.70;;;;;;;;;;5053883;28;20258;-68
2021/09/08 00:40:12;;;;;;;18.00;10.03;;;;;;;;;;5057706;28;20112;-69
2021/09/08 00:42:37;;;;;;;18.42;10.98;;;;;;;;;;5061464;28;20275;-68
2021/09/08 00:45:03;;;;;;;18.75;10.48;;;;;;;;;;5061111;28;20021;-69
2021/09/08 00:47:29;;;;;;;22.42;11.02;;;;;;;;;;5064547;28;20024;-68
2021/09/08 00:49:54;;;;;;;21.00;11.57;;;;;;;;;;5050091;28;20013;-68
2021/09/08 00:52:19;;;;;;;23.00;10.43;;;;;;;;;;5050528;28;20017;-68
2021/09/08 00:54:48;;;;;;;19.25;9.93;;;;;;;;;;5050699;28;20508;-68
2021/09/08 00:57:14;;;;;;;21.40;10.82;;;;;;;;;;5060230;28;20100;-68
2021/09/08 00:59:40;;;;;;;19.88;11.00;;;;;;;;;;5062483;28;20048;-67
2021/09/08 01:02:05;;;;;;;20.52;10.38;;;;;;;;;;5064497;28;20053;-68
2021/09/08 01:04:34;;;;;;;26.47;11.17;;;;;;;;;;5054949;28;20025;-68
2021/09/08 01:07:00;;;;;;;18.08;10.95;;;;;;;;;;5064039;28;20259;-68
2021/09/08 01:09:25;;;;;;;18.25;10.68;;;;;;;;;;5064835;28;20021;-68
2021/09/08 01:11:50;;;;;;;19.60;12.02;;;;;;;;;;5052461;28;20023;-68
2021/09/08 01:14:16;;;;;;;19.30;10.50;;;;;;;;;;5053880;28;20045;-69
2021/09/08 01:16:41;;;;;;;22.67;11.00;;;;;;;;;;5061476;28;20296;-68
2021/09/08 01:19:06;;;;;;;17.30;10.20;;;;;;;;;;5058454;28;20017;-68
2021/09/08 01:21:31;;;;;;;18.17;11.43;;;;;;;;;;5063119;28;20378;-68
2021/09/08 01:24:02;;;;;;;19.90;10.75;;;;;;;;;;5054596;28;20259;-68
2021/09/08 01:26:27;;;;;;;21.98;11.50;;;;;;;;;;5055313;28;20017;-68
2021/09/08 01:28:53;;;;;;;20.90;11.10;;;;;;;;;;5056736;28;20028;-67
2021/09/08 01:31:20;;;;;;;18.33;10.97;;;;;;;;;;5066546;28;20314;-68
2021/09/08 01:33:45;;;;;;;19.40;11.43;;;;;;;;;;5065127;28;20260;-67
2021/09/08 01:36:10;;;;;;;21.00;11.70;;;;;;;;;;5068269;28;20539;-68
2021/09/08 01:38:35;;;;;;;21.30;11.47;;;;;;;;;;5064846;28;20016;-67
2021/09/08 01:41:00;;;;;;;19.33;11.47;;;;;;;;;;5063553;28;20270;-68
2021/09/08 01:43:26;;;;;;;18.27;10.93;;;;;;;;;;5057964;28;20385;-68
2021/09/08 01:45:51;;;;;;;20.75;12.15;;;;;;;;;;5063533;28;20743;-68
2021/09/08 01:48:16;;;;;;;18.05;10.98;;;;;;;;;;5066579;28;20380;-69
2021/09/08 01:50:42;;;;;;;20.63;10.80;;;;;;;;;;5055549;28;20032;-69
2021/09/08 01:53:07;;;;;;;23.08;12.45;;;;;;;;;;5073374;28;20024;-69
2021/09/08 01:55:32;;;;;;;22.27;11.37;;;;;;;;;;5056996;28;20021;-69
2021/09/08 01:57:57;;;;;;;20.98;11.48;;;;;;;;;;5053159;28;20286;-69
2021/09/08 02:00:23;;;;;;;20.48;11.15;;;;;;;;;;5053773;28;20048;-69
2021/09/08 02:02:48;;;;;;;21.42;11.82;;;;;;;;;;5063520;28;20029;-69
2021/09/08 02:05:15;;;;;;;21.30;11.73;;;;;;;;;;5065972;28;20013;-69
2021/09/08 02:07:40;;;;;;;19.45;11.95;;;;;;;;;;5055259;28;20287;-69
2021/09/08 02:10:06;;;;;;;18.98;11.63;;;;;;;;;;5057791;28;20078;-69
2021/09/08 02:12:31;;;;;;;20.10;11.32;;;;;;;;;;5053560;28;20032;-69
2021/09/08 02:14:56;;;;;;;17.67;10.45;;;;;;;;;;5068955;28;20023;-69
2021/09/08 02:17:21;;;;;;;24.33;10.97;;;;;;;;;;5061914;28;20028;-69
2021/09/08 02:19:46;;;;;;;24.80;11.13;;;;;;;;;;5060725;28;20357;-69
2021/09/08 02:22:12;;;;;;;17.75;10.05;;;;;;;;;;5052514;28;20275;-69
2021/09/08 02:24:37;;;;;;;20.02;10.77;;;;;;;;;;5067509;28;20035;-69
2021/09/08 02:27:02;;;;;;;19.30;10.95;;;;;;;;;;5067564;28;20082;-69
2021/09/08 02:29:27;;;;;;;16.85;10.88;;;;;;;;;;5058782;28;20016;-69
2021/09/08 02:31:53;;;;;;;23.53;12.00;;;;;;;;;;5064433;28;20021;-69
2021/09/08 02:34:18;;;;;;;20.60;11.65;;;;;;;;;;5065134;28;20766;-68
2021/09/08 02:36:43;;;;;;;18.97;11.47;;;;;;;;;;5063876;28;20099;-68
2021/09/08 02:39:08;;;;;;;22.30;10.33;;;;;;;;;;5054432;28;20306;-68
2021/09/08 02:41:34;;;;;;;23.15;11.80;;;;;;;;;;5072426;28;20615;-69
2021/09/08 02:43:59;;;;;;;19.60;11.23;;;;;;;;;;5061682;28;20021;-69
2021/09/08 02:46:24;;;;;;;17.58;10.48;;;;;;;;;;5054554;28;20017;-68
2021/09/08 02:48:49;;;;;;;20.08;10.57;;;;;;;;;;5058804;28;20025;-68
2021/09/08 02:51:14;;;;;;;23.03;11.17;;;;;;;;;;5059050;28;20037;-69
2021/09/08 02:53:40;;;;;;;21.92;11.25;;;;;;;;;;5068409;28;20266;-69
2021/09/08 02:56:05;;;;;;;16.83;10.43;;;;;;;;;;5072340;28;20028;-69
2021/09/08 02:58:30;;;;;;;23.48;10.77;;;;;;;;;;5062870;28;20388;-69
2021/09/08 03:00:56;;;;;;;30.23;12.70;;;;;;;;;;5059235;28;20060;-69
2021/09/08 03:03:21;;;;;;;19.60;10.70;;;;;;;;;;5061526;28;20028;-69
2021/09/08 03:05:47;;;;;;;22.45;11.45;;;;;;;;;;5054953;28;20048;-69
2021/09/08 03:08:12;;;;;;;24.48;11.32;;;;;;;;;;5058852;28;20393;-68
2021/09/08 03:10:39;;;;;;;26.27;11.10;;;;;;;;;;5069932;28;20031;-68
2021/09/08 03:13:05;;;;;;;22.83;10.57;;;;;;;;;;5062788;28;20017;-68
2021/09/08 03:15:31;;;;;;;24.55;11.00;;;;;;;;;;5055683;28;20602;-69
2021/09/08 03:17:56;;;;;;;27.02;11.35;;;;;;;;;;5064128;28;20112;-69
2021/09/08 03:20:21;;;;;;;18.47;10.13;;;;;;;;;;5058177;28;20040;-70
2021/09/08 03:22:46;;;;;;;18.77;11.37;;;;;;;;;;5067086;28;20773;-68
2021/09/08 03:25:12;;;;;;;22.83;10.87;;;;;;;;;;5071998;28;20265;-67
2021/09/08 03:27:37;;;;;;;18.67;10.48;;;;;;;;;;5069245;28;20720;-69
2021/09/08 03:30:03;;;;;;;21.80;11.57;;;;;;;;;;5058918;28;20398;-68
2021/09/08 03:32:28;;;;;;;22.15;10.68;;;;;;;;;;5060046;28;20487;-68
2021/09/08 03:34:53;;;;;;;20.97;10.90;;;;;;;;;;5056903;28;20020;-69
2021/09/08 03:37:18;;;;;;;21.90;11.27;;;;;;;;;;5054959;28;20266;-68
2021/09/08 03:39:43;;;;;;;36.80;12.03;;;;;;;;;;5051422;28;20013;-68
2021/09/08 03:42:09;;;;;;;19.25;11.07;;;;;;;;;;5068904;28;20677;-69
2021/09/08 03:44:34;;;;;;;21.20;11.35;;;;;;;;;;5061801;28;20032;-69
2021/09/08 03:46:59;;;;;;;23.15;11.30;;;;;;;;;;5065444;28;20021;-69
2021/09/08 03:49:24;;;;;;;21.23;12.18;;;;;;;;;;5050770;28;20124;-69
2021/09/08 03:51:50;;;;;;;21.85;11.77;;;;;;;;;;5053421;28;20024;-69
2021/09/08 03:54:15;;;;;;;24.05;11.98;;;;;;;;;;5066964;28;20052;-69
2021/09/08 03:56:40;;;;;;;26.33;10.77;;;;;;;;;;5057281;28;20063;-68
2021/09/08 03:59:05;;;;;;;21.33;10.95;;;;;;;;;;5056314;28;20024;-68
2021/09/08 04:01:31;;;;;;;17.93;10.60;;;;;;;;;;5066353;28;20051;-68
2021/09/08 04:03:56;;;;;;;19.50;10.43;;;;;;;;;;5050454;28;20259;-68
2021/09/08 04:06:21;;;;;;;24.02;11.30;;;;;;;;;;5044024;28;20279;-68
2021/09/08 04:08:46;;;;;;;22.43;11.00;;;;;;;;;;5047522;28;20482;-69
2021/09/08 04:11:12;;;;;;;18.58;10.73;;;;;;;;;;5050631;28;20366;-69
2021/09/08 04:13:37;;;;;;;21.48;10.57;;;;;;;;;;5049624;28;20013;-68
2021/09/08 04:16:02;;;;;;;25.17;12.17;;;;;;;;;;5050057;28;20020;-68
2021/09/08 04:18:27;;;;;;;18.33;10.55;;;;;;;;;;5049405;28;20251;-68
2021/09/08 04:20:52;;;;;;;21.20;13.63;;;;;;;;;;5050362;28;20028;-69
2021/09/08 04:23:18;;;;;;;24.63;12.93;;;;;;;;;;5049920;28;20263;-68
2021/09/08 04:25:43;;;;;;;20.30;11.60;;;;;;;;;;5050080;28;20333;-69
2021/09/08 04:28:08;;;;;;;18.95;10.98;;;;;;;;;;5048961;28;20060;-68
2021/09/08 04:30:33;;;;;;;23.30;11.27;;;;;;;;;;5050354;28;20029;-69
2021/09/08 04:32:58;;;;;;;21.00;11.33;;;;;;;;;;5049363;28;20662;-69
2021/09/08 04:35:24;;;;;;;20.00;11.32;;;;;;;;;;5044786;28;20313;-69
2021/09/08 04:37:49;;;;;;;23.13;11.05;;;;;;;;;;5047051;28;20035;-69
2021/09/08 04:40:14;;;;;;;17.65;10.75;;;;;;;;;;5050106;28;20085;-69
2021/09/08 04:42:39;;;;;;;19.75;10.98;;;;;;;;;;5049940;28;20432;-69
2021/09/08 04:45:05;;;;;;;20.88;11.23;;;;;;;;;;5048477;28;20313;-69
2021/09/08 04:47:30;;;;;;;19.90;10.57;;;;;;;;;;5050029;28;20048;-69
2021/09/08 04:49:55;;;;;;;31.67;12.48;;;;;;;;;;5052514;28;20025;-68
2021/09/08 04:52:20;;;;;;;22.23;10.60;;;;;;;;;;5048801;28;20021;-68
2021/09/08 04:54:45;;;;;;;25.77;11.80;;;;;;;;;;5046525;28;20075;-68
2021/09/08 04:57:11;;;;;;;21.85;11.52;;;;;;;;;;5051204;28;20263;-68
2021/09/08 04:59:36;;;;;;;25.65;10.90;;;;;;;;;;5048566;28;20029;-71
2021/09/08 05:02:01;;;;;;;21.80;11.50;;;;;;;;;;5045532;28;20025;-70
2021/09/08 05:04:26;;;;;;;21.92;11.00;;;;;;;;;;5050563;28;20275;-69
2021/09/08 05:06:51;;;;;;;22.73;11.73;;;;;;;;;;5048969;28;20024;-69
2021/09/08 05:09:17;;;;;;;19.13;11.40;;;;;;;;;;5052822;28;20262;-69
2021/09/08 05:11:42;;;;;;;18.08;10.95;;;;;;;;;;5050200;28;20021;-69
2021/09/08 05:14:07;;;;;;;17.70;11.32;;;;;;;;;;5046946;28;20024;-69
2021/09/08 05:16:33;;;;;;;29.15;12.20;;;;;;;;;;5049092;28;20032;-69
2021/09/08 05:18:58;;;;;;;22.88;11.30;;;;;;;;;;5060083;28;20051;-69
2021/09/08 05:21:24;;;;;;;22.75;11.88;;;;;;;;;;5053217;28;20028;-69
2021/09/08 05:23:49;;;;;;;21.25;11.32;;;;;;;;;;5058855;28;20025;-69
2021/09/08 05:26:14;;;;;;;22.13;11.43;;;;;;;;;;5050561;28;20017;-69
2021/09/08 05:28:39;;;;;;;20.67;11.13;;;;;;;;;;5040775;28;20036;-69
2021/09/08 05:31:05;;;;;;;21.23;11.93;;;;;;;;;;5038034;28;20156;-69
2021/09/08 05:33:32;;;;;;;21.48;11.13;;;;;;;;;;5047841;28;20185;-69
2021/09/08 05:35:57;;;;;;;22.42;10.93;;;;;;;;;;5056782;28;20636;-69
2021/09/08 05:38:22;;;;;;;25.38;12.30;;;;;;;;;;5048816;28;20024;-69
2021/09/08 05:40:49;;;;;;;17.73;10.95;;;;;;;;;;5045335;28;20492;-68
2021/09/08 05:43:14;;;;;;;30.00;11.50;;;;;;;;;;5045666;28;20052;-69
2021/09/08 05:45:39;;;;;;;21.10;10.60;;;;;;;;;;5050297;28;20508;-69
2021/09/08 05:48:04;;;;;;;23.40;12.43;;;;;;;;;;5042332;28;20276;-68
2021/09/08 05:50:31;;;;;;;21.77;12.23;;;;;;;;;;5050583;28;20608;-68
2021/09/08 05:52:56;;;;;;;22.20;11.23;;;;;;;;;;5052157;28;20056;-68
2021/09/08 05:55:21;;;;;;;26.53;12.13;;;;;;;;;;5055890;28;20048;-68
2021/09/08 05:57:47;;;;;;;20.63;11.65;;;;;;;;;;5052108;28;20710;-68
2021/09/08 06:00:12;;;;;;;23.75;11.50;;;;;;;;;;5061300;28;20040;-69
2021/09/08 06:02:37;;;;;;;31.35;11.45;;;;;;;;;;5053136;28;20065;-69
2021/09/08 06:05:03;;;;;;;24.02;11.40;;;;;;;;;;5052755;28;20024;-69
2021/09/08 06:07:28;;;;;;;22.73;11.63;;;;;;;;;;5052579;28;20063;-68
2021/09/08 06:09:53;;;;;;;24.35;11.73;;;;;;;;;;5050941;28;20047;-69
2021/09/08 06:12:18;;;;;;;22.47;10.87;;;;;;;;;;5052171;28;20084;-70
2021/09/08 06:14:43;;;;;;;20.85;10.60;;;;;;;;;;5051675;28;20329;-68
2021/09/08 06:17:09;;;;;;;21.42;10.48;;;;;;;;;;5051880;28;20079;-70
2021/09/08 06:19:35;;;;;;;17.60;10.38;;;;;;;;;;5052149;28;20016;-68
2021/09/08 06:22:01;;;;;;;24.63;10.35;;;;;;;;;;5050165;28;20032;-68
2021/09/08 06:24:26;;;;;;;27.38;10.93;;;;;;;;;;5047458;28;20454;-68
2021/09/08 06:26:51;;;;;;;22.80;10.93;;;;;;;;;;5052807;28;20048;-69
2021/09/08 06:29:16;;;;;;;24.65;11.55;;;;;;;;;;5054155;28;20020;-70
2021/09/08 06:31:42;;;;;;;21.15;11.40;;;;;;;;;;5053629;28;20017;-68
2021/09/08 06:34:08;;;;;;;24.33;11.70;;;;;;;;;;5065509;28;20104;-69
2021/09/08 06:36:34;;;;;;;26.77;11.00;;;;;;;;;;5071870;28;20434;-69
2021/09/08 06:38:59;;;;;;;25.40;11.77;;;;;;;;;;5072423;28;20023;-69
2021/09/08 06:41:24;;;;;;;21.90;11.50;;;;;;;;;;5072589;28;20255;-70
2021/09/08 06:43:49;;;;;;;15.52;10.00;;;;;;;;;;5052696;28;20360;-69
2021/09/08 06:46:15;;;;;;;21.23;9.87;;;;;;;;;;5052506;28;20029;-69
2021/09/08 06:48:40;;;;;;;19.60;10.20;;;;;;;;;;5052548;28;20035;-70
2021/09/08 06:51:06;;;;;;;15.05;9.57;;;;;;;;;;5051467;28;20032;-69
2021/09/08 06:53:31;;;;;;;19.03;10.60;;;;;;;;;;5052029;28;20083;-69
2021/09/08 06:55:56;;;;;;;18.35;10.13;;;;;;;;;;5051830;28;20330;-70
2021/09/08 06:58:21;;;;;;;18.90;10.32;;;;;;;;;;5051707;28;20284;-70
2021/09/08 07:00:46;;;;;;;16.13;10.47;;;;;;;;;;5051553;28;20025;-70
2021/09/08 07:03:12;;;;;;;15.57;9.67;;;;;;;;;;5051748;28;20346;-69
2021/09/08 07:05:37;;;;;;;15.93;10.17;;;;;;;;;;5052162;28;20505;-69
2021/09/08 07:08:05;;;;;;;17.73;10.05;;;;;;;;;;5052353;28;20017;-69
2021/09/08 07:10:30;;;;;;;15.07;9.63;;;;;;;;;;5052238;28;20016;-70
2021/09/08 07:12:55;;;;;;;15.87;9.60;;;;;;;;;;5051681;28;20033;-69
2021/09/08 07:15:21;;;;;;;13.57;9.40;;;;;;;;;;5051667;28;20263;-69
2021/09/08 07:17:46;;;;;;;15.27;10.02;;;;;;;;;;5051552;28;20483;-70
2021/09/08 07:20:11;;;;;;;16.33;9.57;;;;;;;;;;5051707;28;20024;-68
2021/09/08 07:22:36;;;;;;;19.77;9.35;;;;;;;;;;5051552;28;20033;-69
2021/09/08 07:25:02;;;;;;;14.35;9.45;;;;;;;;;;5051803;28;20123;-69
2021/09/08 07:27:27;;;;;;;16.50;9.30;;;;;;;;;;5051135;28;20115;-69
2021/09/08 07:29:53;;;;;;;16.77;10.30;;;;;;;;;;5051566;28;20195;-69
2021/09/08 07:32:18;;;;;;;19.92;9.93;;;;;;;;;;5051161;28;20422;-69
2021/09/08 07:34:43;;;;;;;19.45;10.25;;;;;;;;;;5051550;28;20016;-69
2021/09/08 07:37:08;;;;;;;16.20;10.17;;;;;;;;;;5051606;28;20301;-69
2021/09/08 07:39:34;;;;;;;15.00;9.43;;;;;;;;;;5051322;28;20275;-70
2021/09/08 07:42:00;;;;;;;15.00;9.73;;;;;;;;;;5051068;28;20512;-70
2021/09/08 07:44:25;;;;;;;13.98;10.20;;;;;;;;;;5051215;28;20263;-70
2021/09/08 07:46:50;;;;;;;15.60;8.87;;;;;;;;;;5051040;28;20450;-70
2021/09/08 07:49:16;;;;;;;12.47;8.97;;;;;;;;;;5050978;28;20728;-70
2021/09/08 07:51:41;;;;;;;13.53;9.20;;;;;;;;;;5051648;28;20060;-71
2021/09/08 07:54:06;;;;;;;14.93;8.43;;;;;;;;;;5048521;28;20023;-71
2021/09/08 07:56:31;;;;;;;12.87;9.37;;;;;;;;;;5051049;28;20021;-71
2021/09/08 07:58:57;;;;;;;13.40;8.80;;;;;;;;;;5050947;28;20270;-71
2021/09/08 08:01:22;;;;;;;19.80;8.77;;;;;;;;;;5050918;28;20052;-70
2021/09/08 08:03:47;;;;;;;17.93;9.07;;;;;;;;;;5050376;28;20275;-68
2021/09/08 08:06:12;;;;;;;15.97;9.47;;;;;;;;;;5050733;28;20082;-68
2021/09/08 08:08:37;;;;;;;15.70;9.20;;;;;;;;;;5050115;28;20082;-67
2021/09/08 08:11:03;;;;;;;11.77;8.93;;;;;;;;;;5050587;28;20031;-69
2021/09/08 08:13:28;;;;;;;13.97;10.07;;;;;;;;;;5050073;28;20297;-70
2021/09/08 08:15:53;;;;;;;18.08;10.02;;;;;;;;;;5050536;28;20028;-69
2021/09/08 08:18:18;;;;;;;15.93;10.30;;;;;;;;;;5050609;28;20377;-70
2021/09/08 08:20:43;;;;;;;16.00;10.40;;;;;;;;;;5050617;28;20256;-69
2021/09/08 08:23:09;;;;;;;16.73;10.63;;;;;;;;;;5050460;28;20381;-71
2021/09/08 08:25:34;;;;;;;13.95;9.93;;;;;;;;;;5050406;28;20186;-69
2021/09/08 08:28:02;;;;;;;18.88;10.05;;;;;;;;;;5050328;28;20021;-70
2021/09/08 08:30:28;;;;;;;13.15;8.93;;;;;;;;;;5049867;28;20028;-68
2021/09/08 08:32:53;;;;;;;16.23;9.18;;;;;;;;;;5050671;28;20092;-70
2021/09/08 08:35:18;;;;;;;12.52;8.20;;;;;;;;;;5050762;28;20462;-70
2021/09/08 08:37:44;;;;;;;14.05;8.32;;;;;;;;;;5050876;28;20021;-69
2021/09/08 08:40:10;;;;;;;14.15;8.80;;;;;;;;;;5050467;28;20025;-69
2021/09/08 08:42:35;;;;;;;15.15;9.68;;;;;;;;;;5049007;28;20377;-69
2021/09/08 08:45:00;;;;;;;14.70;9.15;;;;;;;;;;5050312;28;20021;-68
2021/09/08 08:47:26;;;;;;;16.00;6.10;;;;;;;;;;5050421;28;20096;-68
2021/09/08 08:49:52;;;;;;;17.48;9.43;;;;;;;;;;5050053;28;20017;-69
2021/09/08 08:52:18;;;;;;;13.07;9.68;;;;;;;;;;5049948;28;20043;-69
2021/09/08 08:54:43;;;;;;;13.65;9.23;;;;;;;;;;5045310;28;20113;-69
2021/09/08 08:57:09;;;;;;;14.98;7.85;;;;;;;;;;5036644;28;20040;-69
2021/09/08 08:59:40;;;;;;;21.52;9.10;;;;;;;;;;5030117;28;20017;-69
2021/09/08 09:02:19;;;;;;;16.88;9.52;;;;;;;;;;5047866;28;20048;-68
2021/09/08 09:04:44;;;;;;;12.95;9.35;;;;;;;;;;5050380;28;20025;-69
2021/09/08 09:07:20;;;;;;;20.05;10.15;;;;;;;;;;5048820;28;20027;-69
2021/09/08 09:09:50;;;;;;;15.55;9.32;;;;;;;;;;5050500;28;20400;-69
2021/09/08 09:12:15;;;;;;;15.18;7.75;;;;;;;;;;5049460;28;20016;-69
2021/09/08 09:14:40;;;;;;;14.03;9.60;;;;;;;;;;5049624;28;20021;-69
2021/09/08 09:17:10;;;;;;;16.23;10.00;;;;;;;;;;5050148;28;20094;-69
2021/09/08 09:19:44;;;;;;;11.27;5.63;;;;;;;;;;5052625;28;20024;-69
2021/09/08 09:22:09;;;;;;;20.70;8.77;;;;;;;;;;5053982;28;20112;-68
2021/09/08 09:24:39;;;;;;;15.83;8.30;;;;;;;;;;5054143;28;20140;-70
2021/09/08 09:27:09;;;;;;;16.70;9.52;;;;;;;;;;5053586;28;20036;-69
2021/09/08 09:29:34;;;;;;;17.73;8.77;;;;;;;;;;5053393;28;20405;-70
2021/09/08 09:32:04;;;;;;;20.25;9.60;;;;;;;;;;5050947;28;20017;-69
2021/09/08 09:34:30;;;;;;;16.50;9.65;;;;;;;;;;5052451;28;20104;-68
2021/09/08 09:36:56;;;;;;;18.35;8.23;;;;;;;;;;5052498;28;20545;-68
2021/09/08 09:39:22;;;;;;;16.15;7.22;;;;;;;;;;5053126;28;20379;-69
2021/09/08 09:41:47;;;;;;;15.25;9.00;;;;;;;;;;5053311;28;20099;-70
2021/09/08 09:44:14;;;;;;;18.03;8.63;;;;;;;;;;5053181;28;20086;-70
2021/09/08 09:46:43;;;;;;;9.55;5.47;;;;;;;;;;5052776;28;20275;-69
2021/09/08 09:49:09;;;;;;;16.52;10.15;;;;;;;;;;5051423;28;20057;-70
2021/09/08 09:51:34;;;;;;;14.55;7.70;;;;;;;;;;5052893;28;20035;-69
2021/09/08 09:54:00;;;;;;;17.00;8.63;;;;;;;;;;5053825;28;20021;-70
2021/09/08 09:56:25;;;;;;;13.80;8.55;;;;;;;;;;5053283;28;20013;-69
2021/09/08 09:58:51;;;;;;;17.08;8.90;;;;;;;;;;5053588;28;20013;-71
2021/09/08 10:01:17;;;;;;;14.48;9.07;;;;;;;;;;5052953;28;20040;-69
2021/09/08 10:03:43;;;;;;;13.75;8.32;;;;;;;;;;5053186;28;20024;-69
2021/09/08 10:06:08;;;;;;;16.13;7.90;;;;;;;;;;5052886;28;20017;-69
2021/09/08 10:08:55;;;;;;;11.15;5.60;;;;;;;;;;5053149;28;20358;-69
2021/09/08 10:11:23;;;;;;;7.22;4.50;;;;;;;;;;5053045;28;20098;-69
2021/09/08 10:13:56;;;;;;;12.75;8.68;;;;;;;;;;5052852;28;20120;-69
2021/09/08 10:16:22;;;;;;;13.10;8.23;;;;;;;;;;5052560;28;20076;-70
2021/09/08 10:18:47;;;;;;;11.25;5.38;;;;;;;;;;5052350;28;20477;-69
2021/09/08 10:21:14;;;;;;;15.98;8.52;;;;;;;;;;5052506;28;20021;-69
2021/09/08 10:23:42;;;;;;;13.80;8.48;;;;;;;;;;5052559;28;20025;-70
2021/09/08 10:26:09;;;;;;;12.73;8.73;;;;;;;;;;5053027;28;20049;-70
2021/09/08 10:28:34;;;;;;;12.98;8.80;;;;;;;;;;5052751;28;20138;-69
2021/09/08 10:30:59;;;;;;;14.13;8.82;;;;;;;;;;5051583;28;20487;-69
2021/09/08 10:33:25;;;;;;;13.15;8.52;;;;;;;;;;5052147;28;20150;-70
2021/09/08 10:35:51;;;;;;;11.85;7.72;;;;;;;;;;5052491;28;20021;-68
2021/09/08 10:38:17;;;;;;;13.98;8.77;;;;;;;;;;5051904;28;20017;-70
2021/09/08 10:40:43;;;;;;;12.02;8.15;;;;;;;;;;5052549;28;20017;-68
2021/09/08 10:43:09;;;;;;;17.17;9.20;;;;;;;;;;5052423;28;20028;-70
2021/09/08 10:45:35;;;;;;;12.07;7.05;;;;;;;;;;5052397;28;20062;-70
2021/09/08 10:48:01;;;;;;;10.98;6.38;;;;;;;;;;5052634;28;20021;-70
2021/09/08 10:50:35;;;;;;;17.80;8.40;;;;;;;;;;5052490;28;20064;-69
2021/09/08 10:53:21;;;;;;;11.38;5.75;;;;;;;;;;5051792;28;20025;-70
2021/09/08 10:55:47;;;;;;;11.52;5.80;;;;;;;;;;5048126;28;20051;-68
2021/09/08 10:58:12;;;;;;;15.38;5.45;;;;;;;;;;5051872;28;20021;-69
2021/09/08 11:00:38;;;;;;;10.30;7.33;;;;;;;;;;5052140;28;20017;-69
2021/09/08 11:03:05;;;;;;;13.60;8.50;;;;;;;;;;5051783;28;20252;-70
2021/09/08 11:05:31;;;;;;;10.57;6.82;;;;;;;;;;5052128;28;20047;-69
2021/09/08 11:07:56;;;;;;;18.30;7.35;;;;;;;;;;5050329;28;20388;-70
2021/09/08 11:10:29;;;;;;;13.23;7.50;;;;;;;;;;5051856;28;20033;-70
2021/09/08 11:12:55;;;;;;;11.85;8.75;;;;;;;;;;5051488;28;20020;-70
2021/09/08 11:15:31;;;;;;;13.80;7.53;;;;;;;;;;5051726;28;20017;-70
2021/09/08 11:17:56;;;;;;;12.00;7.35;;;;;;;;;;5052071;28;20385;-70
2021/09/08 11:20:22;;;;;;;9.93;7.60;;;;;;;;;;5051507;28;20021;-70
2021/09/08 11:23:00;;;;;;;10.25;6.80;;;;;;;;;;5051236;28;20036;-69
2021/09/08 11:25:30;;;;;;;14.70;7.03;;;;;;;;;;5044752;28;20552;-70
2021/09/08 11:27:56;;;;;;;15.70;5.38;;;;;;;;;;5051599;28;20074;-70
2021/09/08 11:30:21;;;;;;;13.57;7.68;;;;;;;;;;5051695;28;20024;-70
2021/09/08 11:32:52;;;;;;;14.50;7.87;;;;;;;;;;5051494;28;20028;-69
2021/09/08 11:35:33;;;;;;;12.43;7.18;;;;;;;;;;5051560;28;20260;-70
2021/09/08 11:37:58;;;;;;;15.80;7.57;;;;;;;;;;5051493;28;20052;-69
2021/09/08 11:40:24;;;;;;;12.13;7.83;;;;;;;;;;5050794;28;20053;-70
2021/09/08 11:42:49;;;;;;;13.50;7.07;;;;;;;;;;5051130;28;20266;-69
2021/09/08 11:45:24;;;;;;;11.93;7.22;;;;;;;;;;5050693;28;20640;-71
2021/09/08 11:47:49;;;;;;;11.23;6.82;;;;;;;;;;5051298;28;20025;-69
2021/09/08 11:50:14;;;;;;;15.57;7.37;;;;;;;;;;5050512;28;20078;-69
2021/09/08 11:52:39;;;;;;;9.40;5.60;;;;;;;;;;5050894;28;20025;-69
2021/09/08 11:55:05;;;;;;;13.60;6.67;;;;;;;;;;5051063;28;20759;-69
2021/09/08 11:57:30;;;;;;;10.38;6.50;;;;;;;;;;5051046;28;20056;-70
2021/09/08 11:59:55;;;;;;;12.77;8.03;;;;;;;;;;5050021;28;20027;-69
2021/09/08 12:02:20;;;;;;;9.57;7.10;;;;;;;;;;5050595;28;20465;-70
2021/09/08 12:04:46;;;;;;;10.80;7.28;;;;;;;;;;5051159;28;20029;-70
2021/09/08 12:07:11;;;;;;;14.38;7.38;;;;;;;;;;5050770;28;20088;-71
2021/09/08 12:09:40;;;;;;;11.13;6.50;;;;;;;;;;5050728;28;20013;-69
2021/09/08 12:12:06;;;;;;;10.13;7.57;;;;;;;;;;5050729;28;20497;-69
2021/09/08 12:14:31;;;;;;;16.48;8.27;;;;;;;;;;5050637;28;20293;-70
2021/09/08 12:17:23;;;;;;;9.80;5.87;;;;;;;;;;5051094;28;20108;-70
2021/09/08 12:19:48;;;;;;;10.23;7.47;;;;;;;;;;5048737;28;20047;-70
2021/09/08 12:22:16;;;;;;;18.43;6.63;;;;;;;;;;5045388;28;20323;-69
2021/09/08 12:24:43;;;;;;;13.65;7.40;;;;;;;;;;5046190;28;20267;-69
2021/09/08 12:27:28;;;;;;;12.35;6.95;;;;;;;;;;5030511;28;20040;-70
2021/09/08 12:29:54;;;;;;;9.23;5.53;;;;;;;;;;5046060;28;20401;-70
2021/09/08 12:32:20;;;;;;;7.15;4.10;;;;;;;;;;5050010;28;20025;-70
2021/09/08 12:34:47;;;;;;;11.03;7.43;;;;;;;;;;5049940;28;20527;-68
2021/09/08 12:37:12;;;;;;;12.40;8.52;;;;;;;;;;5050251;28;20258;-69
2021/09/08 12:39:44;;;;;;;7.57;4.03;;;;;;;;;;5049901;28;20021;-70
2021/09/08 12:42:16;;;;;;;13.88;5.97;;;;;;;;;;5049614;28;20551;-71
2021/09/08 12:44:41;;;;;;;17.10;8.73;;;;;;;;;;5049751;28;20037;-70
2021/09/08 12:47:08;;;;;;;15.97;8.43;;;;;;;;;;5049953;28;20459;-70
2021/09/08 12:49:33;;;;;;;10.43;7.60;;;;;;;;;;5049929;28;20028;-70
2021/09/08 12:51:59;;;;;;;11.18;4.93;;;;;;;;;;5049793;28;20017;-70
2021/09/08 12:54:24;;;;;;;21.03;6.73;;;;;;;;;;5049266;28;20457;-70
2021/09/08 12:56:50;;;;;;;11.20;6.45;;;;;;;;;;5050161;28;20029;-70
2021/09/08 12:59:19;;;;;;;10.98;7.63;;;;;;;;;;5049832;28;20028;-69
2021/09/08 13:01:45;;;;;;;13.85;7.60;;;;;;;;;;5049351;28;20520;-69
2021/09/08 13:04:10;;;;;;;14.80;7.95;;;;;;;;;;5049778;28;20417;-70
2021/09/08 13:06:36;;;;;;;15.07;7.50;;;;;;;;;;5050020;28;20036;-70
2021/09/08 13:09:01;;;;;;;13.07;8.30;;;;;;;;;;5050126;28;20028;-70
2021/09/08 13:11:26;;;;;;;12.10;7.82;;;;;;;;;;5050093;28;20025;-70
2021/09/08 13:13:51;;;;;;;12.33;6.27;;;;;;;;;;5049867;28;20028;-67
2021/09/08 13:16:16;;;;;;;19.17;8.60;;;;;;;;;;5049539;28;20316;-69
2021/09/08 13:18:42;;;;;;;12.15;7.13;;;;;;;;;;5049596;28;20479;-69
2021/09/08 13:21:07;;;;;;;12.95;7.07;;;;;;;;;;5049786;28;20044;-70
2021/09/08 13:23:32;;;;;;;10.95;7.68;;;;;;;;;;5049578;28;20431;-69
2021/09/08 13:25:58;;;;;;;10.02;7.13;;;;;;;;;;5050087;28;20021;-69
2021/09/08 13:28:23;;;;;;;8.30;5.50;;;;;;;;;;5049799;28;20428;-69
2021/09/08 13:30:48;;;;;;;8.23;4.22;;;;;;;;;;5048834;28;20047;-69
2021/09/08 13:33:13;;;;;;;9.83;6.70;;;;;;;;;;5049600;28;20021;-70
2021/09/08 13:35:39;;;;;;;11.97;6.87;;;;;;;;;;5049660;28;20263;-69
2021/09/08 13:38:04;;;;;;;12.88;7.55;;;;;;;;;;5049186;28;20256;-69
2021/09/08 13:40:30;;;;;;;10.20;6.70;;;;;;;;;;5049804;28;20478;-69
2021/09/08 13:42:55;;;;;;;7.55;4.47;;;;;;;;;;5049056;28;20028;-69
2021/09/08 13:45:20;;;;;;;12.83;6.63;;;;;;;;;;5049759;28;20519;-69
2021/09/08 13:47:45;;;;;;;8.05;4.72;;;;;;;;;;5049724;28;20601;-69
2021/09/08 13:50:11;;;;;;;11.57;5.83;;;;;;;;;;5049739;28;20035;-69
2021/09/08 13:52:36;;;;;;;9.77;6.10;;;;;;;;;;5049091;28;20096;-68
2021/09/08 13:55:01;;;;;;;9.00;6.60;;;;;;;;;;5049432;28;20021;-69
2021/09/08 13:57:27;;;;;;;10.52;6.75;;;;;;;;;;5049110;28;20025;-69
2021/09/08 13:59:52;;;;;;;12.27;7.40;;;;;;;;;;5049572;28;20017;-69
2021/09/08 14:02:17;;;;;;;8.37;5.17;;;;;;;;;;5049314;28;20061;-68
2021/09/08 14:04:43;;;;;;;13.50;6.25;;;;;;;;;;5049739;28;20021;-69
2021/09/08 14:07:08;;;;;;;10.23;6.40;;;;;;;;;;5052118;28;20017;-69
2021/09/08 14:09:33;;;;;;;14.40;6.30;;;;;;;;;;5052665;28;20659;-69
2021/09/08 14:11:58;;;;;;;11.80;7.03;;;;;;;;;;5052666;28;20374;-69
2021/09/08 14:14:23;;;;;;;9.93;5.77;;;;;;;;;;5052481;28;20267;-68
2021/09/08 14:16:49;;;;;;;9.02;6.15;;;;;;;;;;5053257;28;20310;-69